sensor_id;sensor_type;location;lat;lon;timestamp;P1;durP1;ratioP1;P2;durP2;ratioP2
46713;SDS011;32445;51.376;10.874;2022-07-06T00:01:53;1.30;;;0.50;;
46713;SDS011;32445;51.376;10.874;2022-07-06T00:04:53;2.40;;;0.77;;
46713;SDS011;32445;51.376;10.874;2022-07-06T00:07:54;1.23;;;0.60;;
46713;SDS011;32445;51.376;10.874;2022-07-06T00:10:54;1.60;;;1.23;;
46713;SDS011;32445;51.376;10.874;2022-07-06T00:13:55;2.53;;;0.80;;
46713;SDS011;32445;51.376;10.874;2022-07-06T00:16:56;2.25;;;1.33;;
46713;SDS011;32445;51.376;10.874;2022-07-06T00:19:56;1.20;;;0.50;;
46713;SDS011;32445;51.376;10.874;2022-07-06T00:22:57;1.53;;;0.67;;
46713;SDS011;32445;51.376;10.874;2022-07-06T00:25:57;1.27;;;0.50;;
46713;SDS011;32445;51.376;10.874;2022-07-06T00:28:57;1.23;;;0.70;;
46713;SDS011;32445;51.376;10.874;2022-07-06T00:31:58;2.80;;;0.77;;
46713;SDS011;32445;51.376;10.874;2022-07-06T00:34:58;0.77;;;0.70;;
46713;SDS011;32445;51.376;10.874;2022-07-06T00:37:59;1.27;;;0.60;;
46713;SDS011;32445;51.376;10.874;2022-07-06T00:40:59;3.67;;;0.65;;
46713;SDS011;32445;51.376;10.874;2022-07-06T00:44:00;3.13;;;0.70;;
46713;SDS011;32445;51.376;10.874;2022-07-06T00:47:00;1.00;;;0.60;;
46713;SDS011;32445;51.376;10.874;2022-07-06T00:50:01;1.03;;;0.67;;
46713;SDS011;32445;51.376;10.874;2022-07-06T00:53:15;0.55;;;0.45;;
46713;SDS011;32445;51.376;10.874;2022-07-06T00:56:15;1.40;;;0.53;;
46713;SDS011;32445;51.376;10.874;2022-07-06T00:59:16;1.10;;;0.70;;
46713;SDS011;32445;51.376;10.874;2022-07-06T01:02:16;1.13;;;0.60;;
46713;SDS011;32445;51.376;10.874;2022-07-06T01:05:17;3.60;;;0.90;;
46713;SDS011;32445;51.376;10.874;2022-07-06T01:08:17;4.55;;;0.70;;
46713;SDS011;32445;51.376;10.874;2022-07-06T01:11:18;2.08;;;0.63;;
46713;SDS011;32445;51.376;10.874;2022-07-06T01:14:19;5.22;;;0.60;;
46713;SDS011;32445;51.376;10.874;2022-07-06T01:17:20;2.47;;;0.93;;
46713;SDS011;32445;51.376;10.874;2022-07-06T01:20:22;4.87;;;0.60;;
46713;SDS011;32445;51.376;10.874;2022-07-06T01:23:24;1.40;;;0.93;;
46713;SDS011;32445;51.376;10.874;2022-07-06T01:26:24;0.63;;;0.60;;
46713;SDS011;32445;51.376;10.874;2022-07-06T01:29:25;1.63;;;0.67;;
46713;SDS011;32445;51.376;10.874;2022-07-06T01:32:26;2.00;;;0.60;;
46713;SDS011;32445;51.376;10.874;2022-07-06T01:35:26;0.83;;;0.80;;
46713;SDS011;32445;51.376;10.874;2022-07-06T01:38:31;2.42;;;0.65;;
46713;SDS011;32445;51.376;10.874;2022-07-06T01:41:31;2.97;;;0.70;;
46713;SDS011;32445;51.376;10.874;2022-07-06T01:44:32;1.83;;;0.73;;
46713;SDS011;32445;51.376;10.874;2022-07-06T01:47:32;1.90;;;0.50;;
46713;SDS011;32445;51.376;10.874;2022-07-06T01:50:33;0.47;;;0.47;;
46713;SDS011;32445;51.376;10.874;2022-07-06T01:53:33;2.90;;;0.73;;
46713;SDS011;32445;51.376;10.874;2022-07-06T01:56:34;1.33;;;0.73;;
46713;SDS011;32445;51.376;10.874;2022-07-06T01:59:34;1.20;;;0.70;;
46713;SDS011;32445;51.376;10.874;2022-07-06T02:02:35;1.10;;;0.60;;
46713;SDS011;32445;51.376;10.874;2022-07-06T02:05:35;1.90;;;0.80;;
46713;SDS011;32445;51.376;10.874;2022-07-06T02:08:36;4.47;;;1.03;;
46713;SDS011;32445;51.376;10.874;2022-07-06T02:11:36;1.77;;;0.60;;
46713;SDS011;32445;51.376;10.874;2022-07-06T02:14:37;1.07;;;0.83;;
46713;SDS011;32445;51.376;10.874;2022-07-06T02:17:37;2.63;;;1.07;;
46713;SDS011;32445;51.376;10.874;2022-07-06T02:20:37;1.10;;;0.80;;
46713;SDS011;32445;51.376;10.874;2022-07-06T02:23:38;2.00;;;0.90;;
46713;SDS011;32445;51.376;10.874;2022-07-06T02:26:39;2.10;;;0.83;;
46713;SDS011;32445;51.376;10.874;2022-07-06T02:29:39;1.50;;;0.70;;
46713;SDS011;32445;51.376;10.874;2022-07-06T02:32:39;1.20;;;0.80;;
46713;SDS011;32445;51.376;10.874;2022-07-06T02:35:39;1.23;;;0.70;;
46713;SDS011;32445;51.376;10.874;2022-07-06T02:38:42;1.75;;;0.80;;
46713;SDS011;32445;51.376;10.874;2022-07-06T02:41:43;1.97;;;0.87;;
46713;SDS011;32445;51.376;10.874;2022-07-06T02:44:43;4.03;;;1.10;;
46713;SDS011;32445;51.376;10.874;2022-07-06T02:47:43;4.00;;;0.90;;
46713;SDS011;32445;51.376;10.874;2022-07-06T02:50:44;1.03;;;0.60;;
46713;SDS011;32445;51.376;10.874;2022-07-06T02:53:44;4.13;;;1.00;;
46713;SDS011;32445;51.376;10.874;2022-07-06T02:56:44;1.53;;;0.60;;
46713;SDS011;32445;51.376;10.874;2022-07-06T02:59:48;2.15;;;0.75;;
46713;SDS011;32445;51.376;10.874;2022-07-06T03:05:50;2.15;;;0.52;;
46713;SDS011;32445;51.376;10.874;2022-07-06T03:08:50;2.30;;;0.87;;
46713;SDS011;32445;51.376;10.874;2022-07-06T03:11:50;3.77;;;0.90;;
46713;SDS011;32445;51.376;10.874;2022-07-06T03:14:51;1.20;;;0.83;;
46713;SDS011;32445;51.376;10.874;2022-07-06T03:17:51;3.73;;;0.93;;
46713;SDS011;32445;51.376;10.874;2022-07-06T03:20:52;2.37;;;1.03;;
46713;SDS011;32445;51.376;10.874;2022-07-06T03:23:52;2.13;;;0.67;;
46713;SDS011;32445;51.376;10.874;2022-07-06T03:26:52;4.27;;;0.90;;
46713;SDS011;32445;51.376;10.874;2022-07-06T03:29:53;1.47;;;0.70;;
46713;SDS011;32445;51.376;10.874;2022-07-06T03:32:53;1.30;;;0.70;;
46713;SDS011;32445;51.376;10.874;2022-07-06T03:35:54;1.20;;;0.77;;
46713;SDS011;32445;51.376;10.874;2022-07-06T03:38:54;1.60;;;0.80;;
46713;SDS011;32445;51.376;10.874;2022-07-06T03:41:54;1.60;;;0.80;;
46713;SDS011;32445;51.376;10.874;2022-07-06T03:44:55;3.40;;;0.70;;
46713;SDS011;32445;51.376;10.874;2022-07-06T03:47:55;1.67;;;0.97;;
46713;SDS011;32445;51.376;10.874;2022-07-06T03:50:55;4.20;;;0.80;;
46713;SDS011;32445;51.376;10.874;2022-07-06T03:53:56;2.37;;;1.43;;
46713;SDS011;32445;51.376;10.874;2022-07-06T03:56:56;4.60;;;1.00;;
46713;SDS011;32445;51.376;10.874;2022-07-06T03:59:56;5.73;;;1.03;;
46713;SDS011;32445;51.376;10.874;2022-07-06T04:02:57;1.30;;;0.90;;
46713;SDS011;32445;51.376;10.874;2022-07-06T04:05:57;2.40;;;0.70;;
46713;SDS011;32445;51.376;10.874;2022-07-06T04:08:57;3.07;;;0.97;;
46713;SDS011;32445;51.376;10.874;2022-07-06T04:11:58;2.27;;;1.40;;
46713;SDS011;32445;51.376;10.874;2022-07-06T04:14:58;3.67;;;1.00;;
46713;SDS011;32445;51.376;10.874;2022-07-06T04:17:58;1.50;;;1.20;;
46713;SDS011;32445;51.376;10.874;2022-07-06T04:20:59;2.77;;;1.00;;
46713;SDS011;32445;51.376;10.874;2022-07-06T04:23:59;2.57;;;1.20;;
46713;SDS011;32445;51.376;10.874;2022-07-06T04:27:00;8.27;;;1.27;;
46713;SDS011;32445;51.376;10.874;2022-07-06T04:30:00;4.70;;;0.90;;
46713;SDS011;32445;51.376;10.874;2022-07-06T04:33:01;3.53;;;1.08;;
46713;SDS011;32445;51.376;10.874;2022-07-06T04:36:02;6.03;;;1.50;;
46713;SDS011;32445;51.376;10.874;2022-07-06T04:39:02;9.17;;;1.83;;
46713;SDS011;32445;51.376;10.874;2022-07-06T04:42:03;6.77;;;1.27;;
46713;SDS011;32445;51.376;10.874;2022-07-06T04:45:03;11.37;;;1.83;;
46713;SDS011;32445;51.376;10.874;2022-07-06T04:51:06;4.70;;;1.60;;
46713;SDS011;32445;51.376;10.874;2022-07-06T04:54:06;6.03;;;1.40;;
46713;SDS011;32445;51.376;10.874;2022-07-06T04:57:06;6.20;;;1.73;;
46713;SDS011;32445;51.376;10.874;2022-07-06T05:00:07;8.93;;;1.43;;
46713;SDS011;32445;51.376;10.874;2022-07-06T05:03:08;5.18;;;1.45;;
46713;SDS011;32445;51.376;10.874;2022-07-06T05:06:08;1.40;;;1.13;;
46713;SDS011;32445;51.376;10.874;2022-07-06T05:09:09;5.27;;;1.40;;
46713;SDS011;32445;51.376;10.874;2022-07-06T05:12:09;3.43;;;1.40;;
46713;SDS011;32445;51.376;10.874;2022-07-06T05:15:10;8.77;;;1.88;;
46713;SDS011;32445;51.376;10.874;2022-07-06T05:18:11;1.42;;;1.10;;
46713;SDS011;32445;51.376;10.874;2022-07-06T05:21:11;3.97;;;1.70;;
46713;SDS011;32445;51.376;10.874;2022-07-06T05:24:12;1.83;;;1.20;;
46713;SDS011;32445;51.376;10.874;2022-07-06T05:27:12;3.13;;;1.23;;
46713;SDS011;32445;51.376;10.874;2022-07-06T05:30:12;5.10;;;1.30;;
46713;SDS011;32445;51.376;10.874;2022-07-06T05:33:15;5.72;;;1.27;;
46713;SDS011;32445;51.376;10.874;2022-07-06T05:36:15;6.70;;;1.70;;
46713;SDS011;32445;51.376;10.874;2022-07-06T05:39:16;2.53;;;1.17;;
46713;SDS011;32445;51.376;10.874;2022-07-06T05:42:21;2.83;;;1.20;;
46713;SDS011;32445;51.376;10.874;2022-07-06T05:45:21;9.67;;;1.53;;
46713;SDS011;32445;51.376;10.874;2022-07-06T05:48:22;4.47;;;1.50;;
46713;SDS011;32445;51.376;10.874;2022-07-06T05:51:41;3.72;;;1.10;;
46713;SDS011;32445;51.376;10.874;2022-07-06T05:54:42;5.17;;;1.23;;
46713;SDS011;32445;51.376;10.874;2022-07-06T05:57:42;2.13;;;1.00;;
46713;SDS011;32445;51.376;10.874;2022-07-06T06:00:42;1.93;;;0.80;;
46713;SDS011;32445;51.376;10.874;2022-07-06T06:03:43;2.27;;;0.97;;
46713;SDS011;32445;51.376;10.874;2022-07-06T06:06:44;5.60;;;0.97;;
46713;SDS011;32445;51.376;10.874;2022-07-06T06:09:44;4.40;;;1.03;;
46713;SDS011;32445;51.376;10.874;2022-07-06T06:12:44;8.07;;;2.43;;
46713;SDS011;32445;51.376;10.874;2022-07-06T06:15:46;10.32;;;2.28;;
46713;SDS011;32445;51.376;10.874;2022-07-06T06:18:46;8.67;;;1.07;;
46713;SDS011;32445;51.376;10.874;2022-07-06T06:21:46;8.27;;;1.40;;
46713;SDS011;32445;51.376;10.874;2022-07-06T06:24:47;4.27;;;0.77;;
46713;SDS011;32445;51.376;10.874;2022-07-06T06:27:47;4.33;;;1.17;;
46713;SDS011;32445;51.376;10.874;2022-07-06T06:30:47;2.80;;;0.70;;
46713;SDS011;32445;51.376;10.874;2022-07-06T06:33:48;2.23;;;0.80;;
46713;SDS011;32445;51.376;10.874;2022-07-06T06:36:48;0.60;;;0.57;;
46713;SDS011;32445;51.376;10.874;2022-07-06T06:39:48;1.67;;;0.50;;
46713;SDS011;32445;51.376;10.874;2022-07-06T06:42:49;2.03;;;0.50;;
46713;SDS011;32445;51.376;10.874;2022-07-06T06:45:49;4.50;;;1.37;;
46713;SDS011;32445;51.376;10.874;2022-07-06T06:48:49;1.87;;;0.70;;
46713;SDS011;32445;51.376;10.874;2022-07-06T06:51:50;4.40;;;0.80;;
46713;SDS011;32445;51.376;10.874;2022-07-06T06:54:50;5.73;;;0.80;;
46713;SDS011;32445;51.376;10.874;2022-07-06T06:57:50;1.70;;;1.00;;
46713;SDS011;32445;51.376;10.874;2022-07-06T07:00:51;2.50;;;0.80;;
46713;SDS011;32445;51.376;10.874;2022-07-06T07:03:51;0.77;;;0.60;;
46713;SDS011;32445;51.376;10.874;2022-07-06T07:06:52;1.80;;;1.00;;
46713;SDS011;32445;51.376;10.874;2022-07-06T07:09:52;2.50;;;1.00;;
46713;SDS011;32445;51.376;10.874;2022-07-06T07:12:53;3.30;;;0.70;;
46713;SDS011;32445;51.376;10.874;2022-07-06T07:15:53;2.37;;;0.70;;
46713;SDS011;32445;51.376;10.874;2022-07-06T07:18:54;2.27;;;1.40;;
46713;SDS011;32445;51.376;10.874;2022-07-06T07:21:54;5.20;;;0.90;;
46713;SDS011;32445;51.376;10.874;2022-07-06T07:24:54;1.37;;;0.80;;
46713;SDS011;32445;51.376;10.874;2022-07-06T07:27:54;1.97;;;0.83;;
46713;SDS011;32445;51.376;10.874;2022-07-06T07:30:55;8.23;;;1.10;;
46713;SDS011;32445;51.376;10.874;2022-07-06T07:33:55;6.80;;;1.00;;
46713;SDS011;32445;51.376;10.874;2022-07-06T07:36:57;2.38;;;0.65;;
46713;SDS011;32445;51.376;10.874;2022-07-06T07:39:57;2.63;;;0.63;;
46713;SDS011;32445;51.376;10.874;2022-07-06T07:42:58;8.13;;;1.85;;
46713;SDS011;32445;51.376;10.874;2022-07-06T07:45:59;3.13;;;0.80;;
46713;SDS011;32445;51.376;10.874;2022-07-06T07:48:59;3.07;;;1.10;;
46713;SDS011;32445;51.376;10.874;2022-07-06T07:51:59;2.80;;;1.00;;
46713;SDS011;32445;51.376;10.874;2022-07-06T07:55:00;4.07;;;0.90;;
46713;SDS011;32445;51.376;10.874;2022-07-06T07:58:00;2.13;;;0.83;;
46713;SDS011;32445;51.376;10.874;2022-07-06T08:01:01;3.53;;;0.87;;
46713;SDS011;32445;51.376;10.874;2022-07-06T08:04:01;1.70;;;0.70;;
46713;SDS011;32445;51.376;10.874;2022-07-06T08:07:02;5.20;;;1.55;;
46713;SDS011;32445;51.376;10.874;2022-07-06T08:10:03;6.47;;;0.93;;
46713;SDS011;32445;51.376;10.874;2022-07-06T08:13:04;4.03;;;0.80;;
46713;SDS011;32445;51.376;10.874;2022-07-06T08:16:04;4.63;;;0.50;;
46713;SDS011;32445;51.376;10.874;2022-07-06T08:19:04;1.30;;;0.80;;
46713;SDS011;32445;51.376;10.874;2022-07-06T08:22:05;4.67;;;0.70;;
46713;SDS011;32445;51.376;10.874;2022-07-06T08:25:08;4.85;;;0.77;;
46713;SDS011;32445;51.376;10.874;2022-07-06T08:28:09;10.65;;;1.40;;
46713;SDS011;32445;51.376;10.874;2022-07-06T08:31:09;4.33;;;0.70;;
46713;SDS011;32445;51.376;10.874;2022-07-06T08:34:09;2.47;;;1.00;;
46713;SDS011;32445;51.376;10.874;2022-07-06T08:37:10;2.83;;;0.60;;
46713;SDS011;32445;51.376;10.874;2022-07-06T08:40:10;3.00;;;0.60;;
46713;SDS011;32445;51.376;10.874;2022-07-06T08:43:10;2.20;;;0.47;;
46713;SDS011;32445;51.376;10.874;2022-07-06T08:46:13;2.83;;;1.25;;
46713;SDS011;32445;51.376;10.874;2022-07-06T08:49:17;3.47;;;0.68;;
46713;SDS011;32445;51.376;10.874;2022-07-06T08:52:18;5.00;;;0.85;;
46713;SDS011;32445;51.376;10.874;2022-07-06T08:55:18;2.33;;;0.80;;
46713;SDS011;32445;51.376;10.874;2022-07-06T08:58:19;3.83;;;0.70;;
46713;SDS011;32445;51.376;10.874;2022-07-06T09:01:21;1.67;;;0.80;;
46713;SDS011;32445;51.376;10.874;2022-07-06T09:04:22;1.13;;;0.63;;
46713;SDS011;32445;51.376;10.874;2022-07-06T09:07:23;2.15;;;0.93;;
46713;SDS011;32445;51.376;10.874;2022-07-06T09:10:28;2.20;;;0.63;;
46713;SDS011;32445;51.376;10.874;2022-07-06T09:13:29;3.00;;;0.60;;
46713;SDS011;32445;51.376;10.874;2022-07-06T09:16:30;2.97;;;0.50;;
46713;SDS011;32445;51.376;10.874;2022-07-06T09:19:31;8.32;;;1.15;;
46713;SDS011;32445;51.376;10.874;2022-07-06T09:22:33;10.45;;;1.00;;
46713;SDS011;32445;51.376;10.874;2022-07-06T09:25:33;1.47;;;0.70;;
46713;SDS011;32445;51.376;10.874;2022-07-06T09:28:44;3.08;;;0.75;;
46713;SDS011;32445;51.376;10.874;2022-07-06T09:31:55;1.67;;;0.73;;
46713;SDS011;32445;51.376;10.874;2022-07-06T09:34:59;1.67;;;0.40;;
46713;SDS011;32445;51.376;10.874;2022-07-06T09:38:05;6.97;;;1.02;;
46713;SDS011;32445;51.376;10.874;2022-07-06T09:41:09;3.10;;;0.95;;
46713;SDS011;32445;51.376;10.874;2022-07-06T09:44:10;5.63;;;0.80;;
46713;SDS011;32445;51.376;10.874;2022-07-06T09:47:11;0.98;;;0.52;;
46713;SDS011;32445;51.376;10.874;2022-07-06T09:50:14;3.00;;;0.63;;
46713;SDS011;32445;51.376;10.874;2022-07-06T09:53:17;1.60;;;0.40;;
46713;SDS011;32445;51.376;10.874;2022-07-06T09:56:18;2.20;;;0.73;;
46713;SDS011;32445;51.376;10.874;2022-07-06T09:59:19;5.27;;;0.77;;
46713;SDS011;32445;51.376;10.874;2022-07-06T10:02:21;2.17;;;0.80;;
46713;SDS011;32445;51.376;10.874;2022-07-06T10:05:23;1.13;;;0.60;;
46713;SDS011;32445;51.376;10.874;2022-07-06T10:08:34;0.90;;;0.40;;
46713;SDS011;32445;51.376;10.874;2022-07-06T10:11:38;4.78;;;0.73;;
46713;SDS011;32445;51.376;10.874;2022-07-06T10:14:39;3.35;;;0.75;;
46713;SDS011;32445;51.376;10.874;2022-07-06T10:17:40;1.57;;;0.30;;
46713;SDS011;32445;51.376;10.874;2022-07-06T10:20:41;1.93;;;0.80;;
46713;SDS011;32445;51.376;10.874;2022-07-06T10:23:42;1.15;;;0.52;;
46713;SDS011;32445;51.376;10.874;2022-07-06T10:26:42;4.33;;;0.60;;
46713;SDS011;32445;51.376;10.874;2022-07-06T10:29:43;1.23;;;0.57;;
46713;SDS011;32445;51.376;10.874;2022-07-06T10:32:43;1.43;;;0.67;;
46713;SDS011;32445;51.376;10.874;2022-07-06T10:35:46;1.05;;;0.60;;
46713;SDS011;32445;51.376;10.874;2022-07-06T10:38:50;2.30;;;0.50;;
46713;SDS011;32445;51.376;10.874;2022-07-06T10:41:51;3.25;;;0.60;;
46713;SDS011;32445;51.376;10.874;2022-07-06T10:44:51;2.50;;;0.63;;
46713;SDS011;32445;51.376;10.874;2022-07-06T10:51:11;1.45;;;0.43;;
46713;SDS011;32445;51.376;10.874;2022-07-06T10:54:12;3.67;;;0.60;;
46713;SDS011;32445;51.376;10.874;2022-07-06T10:57:13;3.30;;;0.60;;
46713;SDS011;32445;51.376;10.874;2022-07-06T11:00:18;0.88;;;0.40;;
46713;SDS011;32445;51.376;10.874;2022-07-06T11:03:32;1.47;;;0.50;;
46713;SDS011;32445;51.376;10.874;2022-07-06T11:06:41;2.08;;;0.60;;
46713;SDS011;32445;51.376;10.874;2022-07-06T11:09:53;3.80;;;0.65;;
46713;SDS011;32445;51.376;10.874;2022-07-06T11:12:59;4.65;;;1.02;;
46713;SDS011;32445;51.376;10.874;2022-07-06T11:16:01;0.88;;;0.50;;
46713;SDS011;32445;51.376;10.874;2022-07-06T11:19:09;4.07;;;0.50;;
46713;SDS011;32445;51.376;10.874;2022-07-06T11:22:11;2.75;;;0.50;;
46713;SDS011;32445;51.376;10.874;2022-07-06T11:25:15;4.43;;;0.70;;
46713;SDS011;32445;51.376;10.874;2022-07-06T11:28:17;1.77;;;0.55;;
46713;SDS011;32445;51.376;10.874;2022-07-06T11:31:17;1.03;;;0.47;;
46713;SDS011;32445;51.376;10.874;2022-07-06T11:34:28;1.03;;;0.50;;
46713;SDS011;32445;51.376;10.874;2022-07-06T11:37:30;2.25;;;0.60;;
46713;SDS011;32445;51.376;10.874;2022-07-06T11:40:30;1.07;;;0.50;;
46713;SDS011;32445;51.376;10.874;2022-07-06T11:43:30;1.77;;;0.57;;
46713;SDS011;32445;51.376;10.874;2022-07-06T11:46:32;1.23;;;0.50;;
46713;SDS011;32445;51.376;10.874;2022-07-06T11:49:34;2.83;;;0.57;;
46713;SDS011;32445;51.376;10.874;2022-07-06T11:52:37;1.67;;;0.47;;
46713;SDS011;32445;51.376;10.874;2022-07-06T11:55:37;3.60;;;0.40;;
46713;SDS011;32445;51.376;10.874;2022-07-06T11:58:38;1.33;;;0.40;;
46713;SDS011;32445;51.376;10.874;2022-07-06T12:01:42;2.55;;;0.50;;
46713;SDS011;32445;51.376;10.874;2022-07-06T12:04:44;1.80;;;0.50;;
46713;SDS011;32445;51.376;10.874;2022-07-06T12:07:45;3.00;;;0.60;;
46713;SDS011;32445;51.376;10.874;2022-07-06T12:10:46;1.23;;;0.40;;
46713;SDS011;32445;51.376;10.874;2022-07-06T12:13:46;4.50;;;0.70;;
46713;SDS011;32445;51.376;10.874;2022-07-06T12:16:49;0.80;;;0.30;;
46713;SDS011;32445;51.376;10.874;2022-07-06T12:19:53;3.08;;;0.60;;
46713;SDS011;32445;51.376;10.874;2022-07-06T12:23:01;6.38;;;0.60;;
46713;SDS011;32445;51.376;10.874;2022-07-06T12:26:02;1.15;;;0.50;;
46713;SDS011;32445;51.376;10.874;2022-07-06T12:29:07;2.67;;;0.50;;
46713;SDS011;32445;51.376;10.874;2022-07-06T12:32:17;1.33;;;0.30;;
46713;SDS011;32445;51.376;10.874;2022-07-06T12:35:22;1.67;;;0.32;;
46713;SDS011;32445;51.376;10.874;2022-07-06T12:38:23;6.63;;;0.60;;
46713;SDS011;32445;51.376;10.874;2022-07-06T12:41:28;1.55;;;0.40;;
46713;SDS011;32445;51.376;10.874;2022-07-06T12:44:31;3.15;;;0.80;;
46713;SDS011;32445;51.376;10.874;2022-07-06T12:47:32;3.88;;;0.30;;
46713;SDS011;32445;51.376;10.874;2022-07-06T12:50:36;1.53;;;0.40;;
46713;SDS011;32445;51.376;10.874;2022-07-06T12:53:38;1.95;;;0.40;;
46713;SDS011;32445;51.376;10.874;2022-07-06T12:56:55;7.10;;;0.60;;
46713;SDS011;32445;51.376;10.874;2022-07-06T12:59:56;2.17;;;0.50;;
46713;SDS011;32445;51.376;10.874;2022-07-06T13:02:57;2.80;;;0.60;;
46713;SDS011;32445;51.376;10.874;2022-07-06T13:05:59;5.35;;;0.63;;
46713;SDS011;32445;51.376;10.874;2022-07-06T13:08:59;2.23;;;0.23;;
46713;SDS011;32445;51.376;10.874;2022-07-06T13:12:00;3.63;;;0.68;;
46713;SDS011;32445;51.376;10.874;2022-07-06T13:15:00;0.83;;;0.33;;
46713;SDS011;32445;51.376;10.874;2022-07-06T13:18:01;2.97;;;0.50;;
46713;SDS011;32445;51.376;10.874;2022-07-06T13:21:02;0.97;;;0.30;;
46713;SDS011;32445;51.376;10.874;2022-07-06T13:24:02;1.90;;;0.50;;
46713;SDS011;32445;51.376;10.874;2022-07-06T13:27:04;2.63;;;0.50;;
46713;SDS011;32445;51.376;10.874;2022-07-06T13:30:05;3.20;;;0.50;;
46713;SDS011;32445;51.376;10.874;2022-07-06T13:33:05;1.98;;;0.60;;
46713;SDS011;32445;51.376;10.874;2022-07-06T13:36:06;3.00;;;0.45;;
46713;SDS011;32445;51.376;10.874;2022-07-06T13:39:06;1.98;;;0.50;;
46713;SDS011;32445;51.376;10.874;2022-07-06T13:42:07;1.30;;;0.40;;
46713;SDS011;32445;51.376;10.874;2022-07-06T13:45:09;3.65;;;0.75;;
46713;SDS011;32445;51.376;10.874;2022-07-06T13:48:09;4.15;;;0.80;;
46713;SDS011;32445;51.376;10.874;2022-07-06T13:51:10;1.70;;;0.43;;
46713;SDS011;32445;51.376;10.874;2022-07-06T13:54:10;3.45;;;0.73;;
46713;SDS011;32445;51.376;10.874;2022-07-06T13:57:11;1.40;;;0.40;;
46713;SDS011;32445;51.376;10.874;2022-07-06T14:00:11;4.47;;;0.67;;
46713;SDS011;32445;51.376;10.874;2022-07-06T14:03:12;3.78;;;0.60;;
46713;SDS011;32445;51.376;10.874;2022-07-06T14:06:12;3.40;;;0.40;;
46713;SDS011;32445;51.376;10.874;2022-07-06T14:09:13;1.55;;;0.40;;
46713;SDS011;32445;51.376;10.874;2022-07-06T14:12:13;0.80;;;0.30;;
46713;SDS011;32445;51.376;10.874;2022-07-06T14:15:14;3.50;;;0.40;;
46713;SDS011;32445;51.376;10.874;2022-07-06T14:18:15;1.57;;;0.50;;
46713;SDS011;32445;51.376;10.874;2022-07-06T14:21:17;5.85;;;0.52;;
46713;SDS011;32445;51.376;10.874;2022-07-06T14:24:17;3.43;;;0.70;;
46713;SDS011;32445;51.376;10.874;2022-07-06T14:27:17;1.30;;;0.50;;
46713;SDS011;32445;51.376;10.874;2022-07-06T14:30:18;1.97;;;0.30;;
46713;SDS011;32445;51.376;10.874;2022-07-06T14:33:18;3.33;;;0.50;;
46713;SDS011;32445;51.376;10.874;2022-07-06T14:36:19;2.00;;;0.57;;
46713;SDS011;32445;51.376;10.874;2022-07-06T14:39:19;2.27;;;0.40;;
46713;SDS011;32445;51.376;10.874;2022-07-06T14:42:20;0.83;;;0.33;;
46713;SDS011;32445;51.376;10.874;2022-07-06T14:45:20;3.17;;;0.30;;
46713;SDS011;32445;51.376;10.874;2022-07-06T14:48:20;1.80;;;0.27;;
46713;SDS011;32445;51.376;10.874;2022-07-06T14:51:21;3.90;;;0.47;;
46713;SDS011;32445;51.376;10.874;2022-07-06T14:54:21;4.10;;;0.47;;
46713;SDS011;32445;51.376;10.874;2022-07-06T14:57:21;2.73;;;0.33;;
46713;SDS011;32445;51.376;10.874;2022-07-06T15:00:22;0.97;;;0.30;;
46713;SDS011;32445;51.376;10.874;2022-07-06T15:03:22;1.33;;;0.37;;
46713;SDS011;32445;51.376;10.874;2022-07-06T15:06:23;3.45;;;0.88;;
46713;SDS011;32445;51.376;10.874;2022-07-06T15:09:23;2.03;;;0.20;;
46713;SDS011;32445;51.376;10.874;2022-07-06T15:12:25;2.20;;;0.35;;
46713;SDS011;32445;51.376;10.874;2022-07-06T15:15:25;2.60;;;0.47;;
46713;SDS011;32445;51.376;10.874;2022-07-06T15:18:26;1.35;;;0.30;;
46713;SDS011;32445;51.376;10.874;2022-07-06T15:21:27;2.15;;;0.77;;
46713;SDS011;32445;51.376;10.874;2022-07-06T15:24:27;1.73;;;0.50;;
46713;SDS011;32445;51.376;10.874;2022-07-06T15:27:27;0.83;;;0.40;;
46713;SDS011;32445;51.376;10.874;2022-07-06T15:30:29;1.48;;;0.40;;
46713;SDS011;32445;51.376;10.874;2022-07-06T15:33:32;4.97;;;0.30;;
46713;SDS011;32445;51.376;10.874;2022-07-06T15:36:32;2.42;;;0.73;;
46713;SDS011;32445;51.376;10.874;2022-07-06T15:39:33;2.33;;;1.50;;
46713;SDS011;32445;51.376;10.874;2022-07-06T15:42:33;2.73;;;0.83;;
46713;SDS011;32445;51.376;10.874;2022-07-06T15:45:33;2.83;;;0.50;;
46713;SDS011;32445;51.376;10.874;2022-07-06T15:48:34;1.50;;;0.37;;
46713;SDS011;32445;51.376;10.874;2022-07-06T15:51:34;1.90;;;0.30;;
46713;SDS011;32445;51.376;10.874;2022-07-06T15:54:34;0.60;;;0.20;;
46713;SDS011;32445;51.376;10.874;2022-07-06T15:57:35;1.43;;;0.30;;
46713;SDS011;32445;51.376;10.874;2022-07-06T16:00:35;3.93;;;0.43;;
46713;SDS011;32445;51.376;10.874;2022-07-06T16:03:36;0.93;;;0.40;;
46713;SDS011;32445;51.376;10.874;2022-07-06T16:06:37;1.80;;;0.25;;
46713;SDS011;32445;51.376;10.874;2022-07-06T16:09:38;1.40;;;0.50;;
46713;SDS011;32445;51.376;10.874;2022-07-06T16:12:38;2.03;;;0.50;;
46713;SDS011;32445;51.376;10.874;2022-07-06T16:15:38;5.23;;;1.03;;
46713;SDS011;32445;51.376;10.874;2022-07-06T16:18:39;1.13;;;1.00;;
46713;SDS011;32445;51.376;10.874;2022-07-06T16:21:40;1.33;;;0.40;;
46713;SDS011;32445;51.376;10.874;2022-07-06T16:24:40;0.90;;;0.20;;
46713;SDS011;32445;51.376;10.874;2022-07-06T16:27:41;2.37;;;1.00;;
46713;SDS011;32445;51.376;10.874;2022-07-06T16:30:41;4.00;;;0.73;;
46713;SDS011;32445;51.376;10.874;2022-07-06T16:33:41;1.03;;;0.40;;
46713;SDS011;32445;51.376;10.874;2022-07-06T16:36:42;1.58;;;0.50;;
46713;SDS011;32445;51.376;10.874;2022-07-06T16:39:43;1.87;;;0.53;;
46713;SDS011;32445;51.376;10.874;2022-07-06T16:42:43;3.17;;;0.73;;
46713;SDS011;32445;51.376;10.874;2022-07-06T16:45:43;2.13;;;1.17;;
46713;SDS011;32445;51.376;10.874;2022-07-06T16:48:44;1.80;;;1.50;;
46713;SDS011;32445;51.376;10.874;2022-07-06T16:51:44;1.47;;;0.80;;
46713;SDS011;32445;51.376;10.874;2022-07-06T16:54:44;1.10;;;0.40;;
46713;SDS011;32445;51.376;10.874;2022-07-06T16:57:45;1.43;;;0.40;;
46713;SDS011;32445;51.376;10.874;2022-07-06T17:00:45;2.23;;;0.60;;
46713;SDS011;32445;51.376;10.874;2022-07-06T17:03:45;2.20;;;0.60;;
46713;SDS011;32445;51.376;10.874;2022-07-06T17:06:46;2.40;;;0.30;;
46713;SDS011;32445;51.376;10.874;2022-07-06T17:09:46;1.43;;;0.47;;
46713;SDS011;32445;51.376;10.874;2022-07-06T17:12:46;0.90;;;0.30;;
46713;SDS011;32445;51.376;10.874;2022-07-06T17:15:47;1.57;;;0.50;;
46713;SDS011;32445;51.376;10.874;2022-07-06T17:18:47;4.47;;;0.40;;
46713;SDS011;32445;51.376;10.874;2022-07-06T17:21:47;3.30;;;0.63;;
46713;SDS011;32445;51.376;10.874;2022-07-06T17:24:48;1.23;;;0.73;;
46713;SDS011;32445;51.376;10.874;2022-07-06T17:27:48;2.30;;;0.50;;
46713;SDS011;32445;51.376;10.874;2022-07-06T17:30:49;1.80;;;0.43;;
46713;SDS011;32445;51.376;10.874;2022-07-06T17:33:49;5.40;;;0.57;;
46713;SDS011;32445;51.376;10.874;2022-07-06T17:36:50;3.20;;;0.63;;
46713;SDS011;32445;51.376;10.874;2022-07-06T17:39:50;1.23;;;0.30;;
46713;SDS011;32445;51.376;10.874;2022-07-06T17:42:50;1.30;;;0.60;;
46713;SDS011;32445;51.376;10.874;2022-07-06T17:45:51;4.28;;;0.35;;
46713;SDS011;32445;51.376;10.874;2022-07-06T17:48:51;2.60;;;0.47;;
46713;SDS011;32445;51.376;10.874;2022-07-06T17:51:55;2.85;;;0.40;;
46713;SDS011;32445;51.376;10.874;2022-07-06T17:54:55;3.30;;;0.80;;
46713;SDS011;32445;51.376;10.874;2022-07-06T17:57:55;3.33;;;0.40;;
46713;SDS011;32445;51.376;10.874;2022-07-06T18:00:56;2.33;;;0.63;;
46713;SDS011;32445;51.376;10.874;2022-07-06T18:03:56;0.95;;;0.50;;